Time;durP1;ratioP1;P1;durP2;ratioP2;P2;SDS_P1;SDS_P2;PMS_P1;PMS_P2;Temp;Humidity;BMP_temperature;BMP_pressure;BME280_temperature;BME280_humidity;BME280_pressure;Samples;Min_cycle;Max_cycle;Signal;HPM_P1;HPM_P2
2023/05/05 00:01:24;;;;;;;38.00;17.55;;;10.50;99.90;;;;;;4864693;29;20069;-92
2023/05/05 00:03:51;;;;;;;38.10;18.50;;;10.50;99.90;;;;;;4866521;29;20056;-92
2023/05/05 00:06:16;;;;;;;38.67;18.98;;;10.50;99.90;;;;;;4864559;29;20041;-92
2023/05/05 00:08:42;;;;;;;39.58;18.50;;;10.50;99.90;;;;;;4864476;29;20077;-91
2023/05/05 00:11:08;;;;;;;38.78;18.83;;;10.50;99.90;;;;;;4864572;29;20037;-92
2023/05/05 00:13:34;;;;;;;38.30;19.33;;;10.60;99.90;;;;;;4864079;29;20036;-93
2023/05/05 00:16:00;;;;;;;43.67;22.63;;;10.50;99.90;;;;;;4864287;29;20033;-92
2023/05/05 00:18:27;;;;;;;40.80;19.40;;;10.60;99.90;;;;;;4864060;29;20061;-92
2023/05/05 00:20:52;;;;;;;41.13;20.65;;;10.50;99.90;;;;;;4864280;29;20041;-91
2023/05/05 00:23:19;;;;;;;44.22;19.67;;;10.60;99.90;;;;;;4864507;29;20065;-92
2023/05/05 00:25:45;;;;;;;40.78;20.38;;;10.50;99.90;;;;;;4864127;29;20070;-93
2023/05/05 00:28:12;;;;;;;40.60;19.10;;;10.60;99.90;;;;;;4864205;29;20036;-93
2023/05/05 00:30:39;;;;;;;37.97;19.67;;;10.50;99.90;;;;;;4863735;29;20036;-92
2023/05/05 00:33:05;;;;;;;40.47;18.92;;;10.50;99.90;;;;;;4862922;29;20021;-92
2023/05/05 00:35:30;;;;;;;42.53;19.52;;;10.50;99.90;;;;;;4865494;29;20509;-93
2023/05/05 00:37:57;;;;;;;41.70;18.35;;;10.50;99.90;;;;;;4863493;29;20091;-92
2023/05/05 00:40:23;;;;;;;35.67;18.60;;;10.50;99.90;;;;;;4864370;29;20057;-92
2023/05/05 00:42:49;;;;;;;43.30;20.02;;;10.50;99.90;;;;;;4864296;29;20033;-93
2023/05/05 00:45:17;;;;;;;35.95;19.25;;;10.50;99.90;;;;;;4864133;29;20033;-93
2023/05/05 00:47:57;;;;;;;38.97;19.52;;;10.50;99.90;;;;;;4864484;29;20040;-92
2023/05/05 00:50:25;;;;;;;43.42;20.67;;;10.50;99.90;;;;;;4864120;29;20033;-92
2023/05/05 00:52:53;;;;;;;41.97;20.38;;;10.50;99.90;;;;;;4864364;29;20041;-91
2023/05/05 00:55:19;;;;;;;46.58;21.08;;;10.50;99.90;;;;;;4865168;29;20036;-91
2023/05/05 00:57:46;;;;;;;44.00;21.60;;;10.50;99.90;;;;;;4873715;29;20056;-91
2023/05/05 01:00:12;;;;;;;41.72;20.65;;;10.50;99.90;;;;;;4882828;29;20033;-91
2023/05/05 01:02:38;;;;;;;44.58;20.98;;;10.50;99.90;;;;;;4879203;29;20033;-91
2023/05/05 01:05:05;;;;;;;41.05;21.02;;;10.50;99.90;;;;;;4871683;29;20037;-90
2023/05/05 01:07:50;;;;;;;52.35;22.20;;;10.50;99.90;;;;;;4866941;29;20068;-89
2023/05/05 01:10:31;;;;;;;47.53;22.85;;;10.50;99.90;;;;;;4867019;29;20037;-91
2023/05/05 01:12:56;;;;;;;40.78;21.17;;;10.50;99.90;;;;;;4865216;29;20025;-89
2023/05/05 01:15:33;;;;;;;42.35;22.35;;;10.50;99.90;;;;;;4863778;29;20025;-91
2023/05/05 01:18:11;;;;;;;41.92;22.70;;;10.50;99.90;;;;;;4861842;29;20458;-90
2023/05/05 01:20:54;;;;;;;41.92;22.15;;;10.50;99.90;;;;;;4861583;29;20574;-90
2023/05/05 01:23:58;;;;;;;46.75;21.67;;;10.50;99.90;;;;;;4863100;29;20081;-91
2023/05/05 01:26:53;;;;;;;43.70;22.00;;;10.50;99.90;;;;;;4859363;29;20049;-91
2023/05/05 01:29:48;;;;;;;47.85;23.20;;;10.50;99.90;;;;;;4867632;29;20029;-91
2023/05/05 01:32:18;;;;;;;48.67;23.15;;;10.40;99.90;;;;;;4865114;29;20485;-91
2023/05/05 01:34:59;;;;;;;62.73;26.10;;;10.40;99.90;;;;;;4863522;29;20077;-91
2023/05/05 01:37:29;;;;;;;48.53;23.83;;;10.40;99.90;;;;;;4862776;29;20337;-91
2023/05/05 01:39:58;;;;;;;52.77;26.77;;;10.30;99.90;;;;;;4863505;29;20033;-91
2023/05/05 01:42:25;;;;;;;62.50;26.50;;;10.40;99.90;;;;;;4863276;29;20278;-91
2023/05/05 01:44:52;;;;;;;52.97;25.50;;;10.30;99.90;;;;;;4862740;29;20060;-91
2023/05/05 01:47:21;;;;;;;50.05;24.58;;;10.40;99.90;;;;;;4862728;29;20041;-91
2023/05/05 01:49:48;;;;;;;50.47;24.95;;;10.40;99.90;;;;;;4862995;29;20021;-91
2023/05/05 01:52:15;;;;;;;55.45;26.05;;;10.40;99.90;;;;;;4863497;29;20399;-89
2023/05/05 01:54:43;;;;;;;55.13;25.15;;;10.30;99.90;;;;;;4863817;29;20034;-91
2023/05/05 01:57:10;;;;;;;50.72;24.50;;;10.40;99.90;;;;;;4863333;29;20028;-90
2023/05/05 01:59:38;;;;;;;48.63;23.83;;;10.30;99.90;;;;;;4863311;29;20392;-90
2023/05/05 02:02:07;;;;;;;49.47;23.73;;;10.40;99.90;;;;;;4863101;29;20032;-92
2023/05/05 02:04:35;;;;;;;53.05;25.65;;;10.40;99.90;;;;;;4862792;29;20028;-90
2023/05/05 02:07:02;;;;;;;51.25;23.77;;;10.40;99.90;;;;;;4862720;29;20041;-91
2023/05/05 02:09:28;;;;;;;55.95;25.55;;;10.40;99.90;;;;;;4862778;29;20056;-91
2023/05/05 02:11:56;;;;;;;52.17;26.65;;;10.50;99.90;;;;;;4863214;29;20070;-90
2023/05/05 02:14:25;;;;;;;54.72;24.92;;;10.40;99.90;;;;;;4862762;29;20053;-91
2023/05/05 02:16:52;;;;;;;53.55;25.70;;;10.50;99.90;;;;;;4862838;29;20128;-90
2023/05/05 02:19:20;;;;;;;55.00;25.35;;;10.40;99.90;;;;;;4862394;29;20089;-91
2023/05/05 02:21:46;;;;;;;51.63;24.83;;;10.40;99.90;;;;;;4862572;29;20033;-91
2023/05/05 02:24:11;;;;;;;52.17;25.40;;;10.40;99.90;;;;;;4862684;29;20033;-92
2023/05/05 02:26:43;;;;;;;55.65;26.85;;;10.40;99.90;;;;;;4878234;29;20089;-91
2023/05/05 02:29:15;;;;;;;55.33;25.05;;;10.40;99.90;;;;;;4862807;29;20120;-92
2023/05/05 02:31:53;;;;;;;50.33;25.98;;;10.40;99.90;;;;;;4862862;29;20068;-91
2023/05/05 02:34:24;;;;;;;60.28;25.38;;;10.40;99.90;;;;;;4878324;29;20361;-91
2023/05/05 02:36:52;;;;;;;53.70;25.98;;;10.40;99.90;;;;;;4862451;29;20064;-92
2023/05/05 02:39:44;;;;;;;57.03;25.00;;;10.40;99.90;;;;;;4862879;29;20037;-92
2023/05/05 02:42:15;;;;;;;47.83;22.92;;;10.40;99.90;;;;;;4872606;29;20041;-90
2023/05/05 02:44:41;;;;;;;;;;;10.40;99.90;;;;;;4880231;29;20040;-92
2023/05/05 02:47:08;;;;;;;50.92;23.73;;;10.40;99.90;;;;;;4861906;29;19961;-92
2023/05/05 02:49:34;;;;;;;50.00;24.65;;;10.40;99.90;;;;;;4862140;29;20427;-90
2023/05/05 02:52:00;;;;;;;58.35;26.15;;;10.40;99.90;;;;;;4862302;29;20033;-91
2023/05/05 02:54:26;;;;;;;57.25;27.05;;;10.40;99.90;;;;;;4862642;29;20029;-90
2023/05/05 02:56:53;;;;;;;50.85;25.13;;;10.40;99.90;;;;;;4864006;29;20025;-90
2023/05/05 02:59:28;;;;;;;51.13;25.35;;;10.40;99.90;;;;;;4866960;29;20041;-90
2023/05/05 03:02:20;;;;;;;54.70;26.35;;;10.40;99.90;;;;;;4867593;29;20032;-90
2023/05/05 03:04:53;;;;;;;54.90;26.20;;;10.40;99.90;;;;;;4866918;29;20032;-91
2023/05/05 03:07:30;;;;;;;51.85;27.50;;;10.40;99.90;;;;;;4866660;29;20040;-90
2023/05/05 03:10:12;;;;;;;48.05;25.95;;;10.40;99.90;;;;;;4866735;29;20025;-91
2023/05/05 03:12:47;;;;;;;45.83;24.92;;;10.40;99.90;;;;;;4866171;29;20044;-92
2023/05/05 03:15:13;;;;;;;51.13;27.10;;;10.40;99.90;;;;;;4865881;29;20029;-92
2023/05/05 03:17:41;;;;;;;52.22;27.13;;;10.40;99.90;;;;;;4865874;29;20053;-90
2023/05/05 03:20:11;;;;;;;52.38;27.25;;;10.40;99.90;;;;;;4863423;29;20045;-91
2023/05/05 03:22:37;;;;;;;55.42;27.17;;;10.40;99.90;;;;;;4865021;29;20033;-92
2023/05/05 03:25:03;;;;;;;60.40;28.10;;;10.40;99.90;;;;;;4866203;29;20052;-91
2023/05/05 03:27:29;;;;;;;56.80;26.88;;;10.40;99.90;;;;;;4865950;29;20119;-91
2023/05/05 03:29:55;;;;;;;58.83;27.50;;;10.40;99.90;;;;;;4865894;29;20064;-90
2023/05/05 03:32:22;;;;;;;56.17;27.45;;;10.40;99.90;;;;;;4870961;29;20029;-93
2023/05/05 03:34:48;;;;;;;62.15;29.13;;;10.30;99.90;;;;;;4868797;29;20025;-91
2023/05/05 03:37:14;;;;;;;60.05;27.77;;;10.40;99.90;;;;;;4864636;29;20575;-92
2023/05/05 03:39:40;;;;;;;64.15;31.88;;;10.40;99.90;;;;;;4864780;29;20029;-92
2023/05/05 03:42:05;;;;;;;46.58;22.67;;;10.40;99.90;;;;;;4864635;29;20072;-91
2023/05/05 03:44:31;;;;;;;52.75;27.75;;;10.40;99.90;;;;;;4865076;29;20067;-91
2023/05/05 03:46:57;;;;;;;55.80;28.60;;;10.40;99.90;;;;;;4864371;29;20037;-93
2023/05/05 03:49:23;;;;;;;56.97;29.55;;;10.40;99.90;;;;;;4864454;29;20373;-92
2023/05/05 03:51:49;;;;;;;55.30;30.02;;;10.40;99.90;;;;;;4864501;29;20483;-92
2023/05/05 03:54:15;;;;;;;55.90;28.60;;;10.40;99.90;;;;;;4864804;29;20032;-91
2023/05/05 03:56:41;;;;;;;56.40;28.23;;;10.40;99.90;;;;;;4864943;29;20025;-92
2023/05/05 03:59:07;;;;;;;58.33;29.55;;;10.40;99.90;;;;;;4865103;29;20069;-93
2023/05/05 04:01:34;;;;;;;67.82;28.42;;;10.40;99.90;;;;;;4864997;29;20047;-92
2023/05/05 04:04:00;;;;;;;56.72;29.75;;;10.40;99.90;;;;;;4864295;29;20357;-90
2023/05/05 04:06:26;;;;;;;58.38;29.00;;;10.50;99.90;;;;;;4864717;29;20192;-91
2023/05/05 04:08:52;;;;;;;58.78;28.08;;;10.50;99.90;;;;;;4866973;29;20021;-90
2023/05/05 04:11:17;;;;;;;57.05;29.40;;;10.50;99.90;;;;;;4866294;29;20051;-90
2023/05/05 04:13:43;;;;;;;56.97;28.58;;;10.50;99.90;;;;;;4865498;29;20021;-92
2023/05/05 04:16:09;;;;;;;52.30;27.80;;;10.60;99.90;;;;;;4864275;29;20502;-91
2023/05/05 04:18:35;;;;;;;59.30;29.33;;;10.60;99.90;;;;;;4864128;29;20112;-90
2023/05/05 04:21:00;;;;;;;48.70;24.45;;;10.60;99.90;;;;;;4864298;29;20044;-92
2023/05/05 04:23:26;;;;;;;58.28;28.23;;;10.60;99.90;;;;;;4864439;29;20511;-92
2023/05/05 04:25:52;;;;;;;58.00;27.13;;;10.60;99.90;;;;;;4864664;29;20619;-92
2023/05/05 04:28:19;;;;;;;56.63;29.35;;;10.70;99.90;;;;;;4863576;29;20075;-92
2023/05/05 04:30:45;;;;;;;56.58;28.27;;;10.60;99.90;;;;;;4864472;29;20025;-92
2023/05/05 04:33:11;;;;;;;60.22;29.25;;;10.60;99.90;;;;;;4863941;29;20033;-93
2023/05/05 04:35:36;;;;;;;63.08;29.50;;;10.60;99.90;;;;;;4864147;29;20048;-92
2023/05/05 04:38:02;;;;;;;61.90;28.92;;;10.70;99.90;;;;;;4864492;29;20045;-92
2023/05/05 04:40:28;;;;;;;63.65;29.27;;;10.60;99.90;;;;;;4865164;29;20036;-91
2023/05/05 04:42:53;;;;;;;57.45;29.48;;;10.70;99.90;;;;;;4864218;29;20101;-92
2023/05/05 04:45:19;;;;;;;62.90;28.50;;;10.60;99.90;;;;;;4863911;29;20028;-91
2023/05/05 04:47:45;;;;;;;59.00;29.55;;;10.60;99.90;;;;;;4863899;29;20445;-91
2023/05/05 04:50:12;;;;;;;58.70;29.40;;;10.60;99.90;;;;;;4864013;29;20029;-90
2023/05/05 04:52:38;;;;;;;60.83;27.67;;;10.70;99.90;;;;;;4864079;29;20035;-91
2023/05/05 04:55:04;;;;;;;55.35;27.83;;;10.70;99.90;;;;;;4864630;29;20119;-91
2023/05/05 04:57:30;;;;;;;46.72;24.23;;;10.70;99.90;;;;;;4863814;29;20033;-91
2023/05/05 04:59:56;;;;;;;54.38;27.20;;;10.70;99.90;;;;;;4864087;29;20464;-91
2023/05/05 05:02:21;;;;;;;58.47;28.77;;;10.70;99.90;;;;;;4864005;29;20037;-92
2023/05/05 05:04:47;;;;;;;60.58;28.80;;;10.70;99.90;;;;;;4863992;29;20037;-91
2023/05/05 05:07:13;;;;;;;49.95;25.83;;;10.70;99.90;;;;;;4864084;29;20104;-90
2023/05/05 05:09:39;;;;;;;55.75;28.48;;;10.70;99.90;;;;;;4864411;29;20029;-91
2023/05/05 05:12:06;;;;;;;62.65;29.58;;;10.70;99.90;;;;;;4865649;29;20112;-91
2023/05/05 05:14:41;;;;;;;69.68;29.92;;;10.70;99.90;;;;;;4875836;29;20025;-92
2023/05/05 05:17:07;;;;;;;58.35;29.63;;;10.70;99.90;;;;;;4877746;29;20062;-91
2023/05/05 05:19:32;;;;;;;59.42;29.10;;;10.70;99.90;;;;;;4876112;29;20029;-89
2023/05/05 05:21:58;;;;;;;61.03;29.83;;;10.70;99.90;;;;;;4864481;29;20037;-90
2023/05/05 05:24:24;;;;;;;62.75;29.55;;;10.70;99.90;;;;;;4864977;29;20037;-93
2023/05/05 05:26:50;;;;;;;43.80;23.20;;;10.80;99.90;;;;;;4864087;29;20425;-90
2023/05/05 05:29:16;;;;;;;58.30;28.60;;;10.70;99.90;;;;;;4864435;29;20120;-88
2023/05/05 05:31:42;;;;;;;42.13;22.45;;;10.80;99.90;;;;;;4863865;29;20113;-91
2023/05/05 05:34:07;;;;;;;57.60;28.60;;;10.80;99.90;;;;;;4864644;29;20025;-93
2023/05/05 05:36:33;;;;;;;53.63;26.88;;;10.80;99.90;;;;;;4866056;29;20049;-91
2023/05/05 05:38:58;;;;;;;53.13;27.08;;;10.90;99.90;;;;;;4864756;29;20491;-90
2023/05/05 05:41:24;;;;;;;52.70;26.08;;;10.90;99.90;;;;;;4863370;29;20065;-92
2023/05/05 05:43:50;;;;;;;64.03;28.23;;;10.90;99.90;;;;;;4863129;29;20051;-92
2023/05/05 05:46:15;;;;;;;54.15;26.35;;;10.90;99.90;;;;;;4863519;29;20044;-92
2023/05/05 05:48:41;;;;;;;54.00;27.75;;;11.00;99.90;;;;;;4862781;29;20558;-91
2023/05/05 05:51:06;;;;;;;52.60;27.63;;;11.00;99.90;;;;;;4862905;29;20128;-91
2023/05/05 05:53:32;;;;;;;53.25;26.63;;;11.00;99.90;;;;;;4863466;29;20200;-92
2023/05/05 05:55:58;;;;;;;49.80;23.73;;;11.10;99.90;;;;;;4863022;29;20025;-93
2023/05/05 05:58:24;;;;;;;43.28;19.70;;;11.20;99.90;;;;;;4862473;29;20056;-93
2023/05/05 06:00:50;;;;;;;36.08;18.70;;;11.20;99.90;;;;;;4864176;29;20029;-92
2023/05/05 06:03:16;;;;;;;30.23;15.30;;;11.30;99.90;;;;;;4862998;29;20092;-93
2023/05/05 06:05:41;;;;;;;19.60;12.32;;;11.30;99.90;;;;;;4873399;29;20044;-93
2023/05/05 06:08:07;;;;;;;24.65;14.10;;;11.40;99.90;;;;;;4854496;29;20025;-93
2023/05/05 06:10:33;;;;;;;20.10;11.35;;;11.50;99.90;;;;;;4863212;29;20044;-91
2023/05/05 06:12:59;;;;;;;31.35;16.92;;;11.50;99.90;;;;;;4862933;29;20060;-92
2023/05/05 06:15:25;;;;;;;29.48;15.60;;;11.50;99.90;;;;;;4864946;29;20025;-92
2023/05/05 06:17:51;;;;;;;31.92;15.15;;;11.60;99.90;;;;;;4862391;29;20040;-92
2023/05/05 06:20:17;;;;;;;45.70;22.83;;;11.60;99.90;;;;;;4862052;29;20103;-92
2023/05/05 06:22:44;;;;;;;39.75;21.63;;;11.70;99.90;;;;;;4859880;29;20025;-92
2023/05/05 06:25:10;;;;;;;30.38;16.27;;;11.70;99.90;;;;;;4863164;29;20024;-92
2023/05/05 06:27:35;;;;;;;30.38;13.23;;;11.70;99.90;;;;;;4852889;29;20230;-92
2023/05/05 06:30:01;;;;;;;21.98;13.00;;;11.80;99.90;;;;;;4866087;29;20021;-92
2023/05/05 06:32:26;;;;;;;26.90;12.38;;;11.80;99.90;;;;;;4860831;29;20487;-91
2023/05/05 06:34:52;;;;;;;22.23;12.80;;;11.90;99.90;;;;;;4869991;29;20072;-92
2023/05/05 06:37:18;;;;;;;25.30;13.27;;;11.90;99.90;;;;;;4873459;29;20518;-91
2023/05/05 06:39:44;;;;;;;22.63;12.60;;;11.90;99.90;;;;;;4870174;29;20033;-92
2023/05/05 06:42:09;;;;;;;19.83;12.57;;;12.00;99.90;;;;;;4869542;29;20028;-91
2023/05/05 06:44:35;;;;;;;23.77;11.88;;;12.00;99.90;;;;;;4864392;29;20033;-91
2023/05/05 06:47:02;;;;;;;20.38;12.05;;;12.10;99.90;;;;;;4863421;29;20040;-91
2023/05/05 06:49:27;;;;;;;19.15;11.35;;;12.10;99.90;;;;;;4863381;29;20028;-91
2023/05/05 06:51:53;;;;;;;21.20;12.27;;;12.10;99.90;;;;;;4864740;29;20041;-91
2023/05/05 06:54:18;;;;;;;16.52;10.13;;;12.20;99.90;;;;;;4865660;29;20116;-92
2023/05/05 06:56:45;;;;;;;18.98;11.23;;;12.20;99.90;;;;;;4863573;29;20041;-92
2023/05/05 06:59:11;;;;;;;19.52;10.30;;;12.20;99.90;;;;;;4864302;29;20040;-91
2023/05/05 07:01:36;;;;;;;19.88;9.82;;;12.30;99.90;;;;;;4849067;29;20029;-93
2023/05/05 07:04:02;;;;;;;14.65;8.45;;;12.30;99.90;;;;;;4864518;29;20117;-91
2023/05/05 07:06:28;;;;;;;17.17;9.10;;;12.30;99.90;;;;;;4864636;29;20040;-91
2023/05/05 07:08:53;;;;;;;16.67;8.90;;;12.30;99.90;;;;;;4865031;29;20025;-92
2023/05/05 07:11:19;;;;;;;13.68;8.50;;;12.40;99.90;;;;;;4864723;29;20499;-92
2023/05/05 07:13:45;;;;;;;13.13;7.50;;;12.40;99.90;;;;;;4864855;29;20124;-93
2023/05/05 07:16:10;;;;;;;9.55;6.22;;;12.40;99.90;;;;;;4880571;29;20112;-91
2023/05/05 07:18:36;;;;;;;12.82;6.60;;;12.40;99.90;;;;;;4866667;29;20068;-91
2023/05/05 07:21:05;;;;;;;13.48;6.95;;;12.50;99.90;;;;;;4865229;29;20057;-90
2023/05/05 07:23:31;;;;;;;11.80;5.57;;;12.50;99.90;;;;;;4874875;29;20510;-90
2023/05/05 07:25:56;;;;;;;9.23;5.35;;;12.50;99.90;;;;;;4872626;29;20037;-90
2023/05/05 07:28:22;;;;;;;10.65;6.50;;;12.50;99.90;;;;;;4863468;29;20112;-90
2023/05/05 07:30:48;;;;;;;8.35;5.53;;;12.50;99.90;;;;;;4865241;29;20036;-91
2023/05/05 07:33:14;;;;;;;11.30;5.32;;;12.50;99.90;;;;;;4864862;29;20032;-91
2023/05/05 07:35:40;;;;;;;7.50;5.10;;;12.50;99.90;;;;;;4863310;29;20539;-90
2023/05/05 07:38:05;;;;;;;7.03;4.72;;;12.50;99.90;;;;;;4824780;29;1206889;-90
2023/05/05 07:40:32;;;;;;;10.98;5.45;;;12.50;99.90;;;;;;4880621;29;20123;-90
2023/05/05 07:42:58;;;;;;;9.38;5.68;;;12.50;99.90;;;;;;4865213;29;20021;-90
2023/05/05 07:45:24;;;;;;;8.18;4.97;;;12.50;99.90;;;;;;4866056;29;20036;-89
2023/05/05 07:47:50;;;;;;;10.35;5.40;;;12.50;99.90;;;;;;4865348;29;20035;-90
2023/05/05 07:50:15;;;;;;;11.45;4.85;;;12.50;99.90;;;;;;4865323;29;20025;-92
2023/05/05 07:52:41;;;;;;;7.20;5.07;;;12.50;99.90;;;;;;4864580;29;20399;-90
2023/05/05 07:55:07;;;;;;;9.23;5.97;;;12.60;99.90;;;;;;4881127;29;20056;-90
2023/05/05 07:57:33;;;;;;;7.32;5.13;;;12.60;99.90;;;;;;4865155;29;20025;-91
2023/05/05 07:59:58;;;;;;;9.85;5.85;;;12.60;99.90;;;;;;4865364;29;20101;-92
2023/05/05 08:02:24;;;;;;;8.77;5.13;;;12.60;99.90;;;;;;4866110;29;20031;-91
2023/05/05 08:04:50;;;;;;;9.32;5.55;;;12.70;99.90;;;;;;4865459;29;20021;-91
2023/05/05 08:07:15;;;;;;;12.73;6.05;;;12.70;99.90;;;;;;4865022;29;20085;-90
2023/05/05 08:09:46;;;;;;;9.65;5.05;;;12.80;99.90;;;;;;4864612;29;20040;-91
2023/05/05 08:12:14;;;;;;;10.50;4.53;;;12.80;99.90;;;;;;4879090;29;20037;-91
2023/05/05 08:14:41;;;;;;;8.57;4.97;;;12.80;99.90;;;;;;4863477;29;20079;-91
2023/05/05 08:17:07;;;;;;;8.68;4.53;;;12.80;99.90;;;;;;4863554;29;20499;-92
2023/05/05 08:19:32;;;;;;;8.20;4.82;;;12.90;99.90;;;;;;4871364;29;20054;-91
2023/05/05 08:21:59;;;;;;;8.32;4.43;;;12.90;99.90;;;;;;4863271;29;20033;-91
2023/05/05 08:24:25;;;;;;;6.70;5.00;;;12.90;99.90;;;;;;4855444;29;20120;-91
2023/05/05 08:26:51;;;;;;;7.05;4.30;;;12.90;99.90;;;;;;4863533;29;20068;-93
2023/05/05 08:29:17;;;;;;;8.00;4.15;;;13.00;99.90;;;;;;4861714;29;20060;-92
2023/05/05 08:31:43;;;;;;;8.88;4.30;;;13.10;99.90;;;;;;4862287;29;20080;-91
2023/05/05 08:34:09;;;;;;;9.20;4.50;;;13.10;99.90;;;;;;4862627;29;20124;-92
2023/05/05 08:36:34;;;;;;;8.10;4.32;;;13.20;99.90;;;;;;4855112;29;20124;-91
2023/05/05 08:39:00;;;;;;;8.27;3.88;;;13.20;99.90;;;;;;4859725;29;20052;-91
2023/05/05 08:41:27;;;;;;;4.38;3.33;;;13.30;99.90;;;;;;4862431;29;20089;-92
2023/05/05 08:43:52;;;;;;;4.55;3.33;;;13.30;99.90;;;;;;4862407;29;20029;-92
2023/05/05 08:46:19;;;;;;;6.40;3.95;;;13.40;99.90;;;;;;4860948;29;20032;-92
2023/05/05 08:48:44;;;;;;;5.78;3.42;;;13.40;99.90;;;;;;4855874;29;20029;-92
2023/05/05 08:51:17;;;;;;;5.68;3.70;;;13.40;99.90;;;;;;4862077;29;20036;-91
2023/05/05 08:54:04;;;;;;;6.82;3.40;;;13.50;99.90;;;;;;4864570;29;20029;-91
2023/05/05 08:56:38;;;;;;;7.22;3.28;;;13.60;99.90;;;;;;4867256;29;20020;-91
2023/05/05 08:59:04;;;;;;;4.75;3.05;;;13.60;99.90;;;;;;4879998;29;20028;-91
2023/05/05 09:01:32;;;;;;;4.75;2.88;;;13.70;99.90;;;;;;4865090;29;20057;-91
2023/05/05 09:03:58;;;;;;;5.30;2.88;;;13.70;99.90;;;;;;4864536;29;20383;-93
2023/05/05 09:06:27;;;;;;;5.93;3.28;;;13.80;99.90;;;;;;4864235;29;20059;-92
2023/05/05 09:08:54;;;;;;;6.50;2.95;;;13.80;99.90;;;;;;4864038;29;20036;-92
2023/05/05 09:11:21;;;;;;;5.18;2.65;;;13.90;99.90;;;;;;4864335;29;20037;-91
2023/05/05 09:13:47;;;;;;;4.53;2.90;;;13.90;99.90;;;;;;4880560;29;20174;-91
2023/05/05 09:16:12;;;;;;;4.18;2.50;;;14.00;99.90;;;;;;4864614;29;20452;-92
2023/05/05 09:18:39;;;;;;;3.08;2.38;;;14.00;99.90;;;;;;4864595;29;20040;-92
2023/05/05 09:21:23;;;;;;;5.40;3.15;;;14.10;99.90;;;;;;4864225;29;20029;-91
2023/05/05 09:24:09;;;;;;;4.03;2.75;;;14.20;99.90;;;;;;4863334;29;20037;-93
2023/05/05 09:26:46;;;;;;;5.50;2.83;;;14.30;99.90;;;;;;4864487;29;20495;-91
2023/05/05 09:29:19;;;;;;;5.93;2.58;;;14.30;99.90;;;;;;4865503;29;20033;-91
2023/05/05 09:32:07;;;;;;;5.70;2.60;;;14.30;99.90;;;;;;4864817;29;20029;-93
2023/05/05 09:34:34;;;;;;;4.78;2.33;;;14.30;99.90;;;;;;4865587;29;20106;-93
2023/05/05 09:37:00;;;;;;;8.70;3.10;;;14.30;99.90;;;;;;4865739;29;20510;-92
2023/05/05 09:39:26;;;;;;;3.67;2.20;;;14.40;99.90;;;;;;4864479;29;20108;-94
2023/05/05 09:41:51;;;;;;;5.78;1.92;;;14.40;99.90;;;;;;4863567;29;20061;-92
2023/05/05 09:44:39;;;;;;;3.38;1.80;;;14.50;99.90;;;;;;4879215;29;20539;-93
2023/05/05 09:47:05;;;;;;;5.07;2.05;;;14.50;99.90;;;;;;4862165;29;20048;-93
2023/05/05 09:49:31;;;;;;;7.10;2.70;;;14.60;99.90;;;;;;4858838;29;20038;-94
2023/05/05 09:52:13;;;;;;;8.02;2.58;;;14.60;99.90;;;;;;4863763;29;20029;-93
2023/05/05 09:54:39;;;;;;;5.13;3.05;;;14.70;99.90;;;;;;4880887;29;20021;-92
2023/05/05 09:57:05;;;;;;;5.82;2.72;;;14.80;99.90;;;;;;4864432;29;20029;-93
2023/05/05 09:59:31;;;;;;;5.80;2.83;;;14.90;99.90;;;;;;4870623;29;20060;-94
2023/05/05 10:02:11;;;;;;;5.68;2.50;;;15.00;99.90;;;;;;4874527;29;20464;-93
2023/05/05 10:04:38;;;;;;;6.82;2.65;;;15.00;99.90;;;;;;4875472;29;20028;-90
2023/05/05 10:07:04;;;;;;;5.40;2.50;;;15.10;99.90;;;;;;4874356;29;20159;-93
2023/05/05 10:09:31;;;;;;;7.63;3.25;;;15.20;99.90;;;;;;4861564;29;20029;-92
2023/05/05 10:11:58;;;;;;;7.70;2.83;;;15.30;99.90;;;;;;4863653;29;20029;-90
2023/05/05 10:14:26;;;;;;;10.80;3.35;;;15.40;99.90;;;;;;4862685;29;20033;-93
2023/05/05 10:16:54;;;;;;;5.93;2.53;;;15.50;99.90;;;;;;4863434;29;20479;-92
2023/05/05 10:19:21;;;;;;;4.70;1.95;;;15.50;99.90;;;;;;4863663;29;20021;-94
2023/05/05 10:21:53;;;;;;;7.32;2.38;;;15.60;99.90;;;;;;4863529;29;20032;-92
2023/05/05 10:24:33;;;;;;;3.40;2.22;;;15.80;99.90;;;;;;4864278;29;20033;-92
2023/05/05 10:27:03;;;;;;;5.55;1.83;;;16.10;99.90;;;;;;4879586;29;20048;-93
2023/05/05 10:29:38;;;;;;;4.38;2.00;;;16.20;99.90;;;;;;4879820;29;20060;-93
2023/05/05 10:32:11;;;;;;;6.15;2.35;;;16.30;99.90;;;;;;4862968;29;20041;-92
2023/05/05 10:34:52;;;;;;;4.88;2.22;;;16.40;99.90;;;;;;4861998;29;20023;-94
2023/05/05 10:37:20;;;;;;;3.75;2.00;;;16.40;99.90;;;;;;4862185;29;20041;-93
2023/05/05 10:39:47;;;;;;;8.90;2.30;;;16.50;99.90;;;;;;4862502;29;20039;-93
2023/05/05 10:42:14;;;;;;;5.57;2.10;;;16.50;99.90;;;;;;4861635;29;20033;-93
2023/05/05 10:44:40;;;;;;;4.65;1.90;;;16.50;99.90;;;;;;4862509;29;20021;-94
2023/05/05 10:47:07;;;;;;;7.15;2.38;;;16.60;99.90;;;;;;4862146;29;20487;-93
2023/05/05 10:49:43;;;;;;;3.05;1.70;;;16.70;99.90;;;;;;4862281;29;20025;-94
2023/05/05 10:52:34;;;;;;;5.70;2.00;;;16.80;99.90;;;;;;4863915;29;20048;-95
2023/05/05 10:55:23;;;;;;;5.47;2.47;;;16.80;99.90;;;;;;4876690;29;20040;-93
2023/05/05 10:57:52;;;;;;;6.60;2.00;;;17.00;99.90;;;;;;4877482;29;20033;-93
2023/05/05 11:00:36;;;;;;;4.28;2.03;;;17.20;99.90;;;;;;4863227;29;20032;-94
2023/05/05 11:03:20;;;;;;;8.52;2.40;;;17.30;99.90;;;;;;4876149;29;20025;-94
2023/05/05 11:06:06;;;;;;;6.90;2.08;;;17.20;99.90;;;;;;4865624;29;20097;-93
2023/05/05 11:08:34;;;;;;;3.25;1.80;;;17.30;99.90;;;;;;4861710;29;20041;-91
2023/05/05 11:11:01;;;;;;;1.73;1.48;;;17.30;99.90;;;;;;4863707;29;20021;-93
2023/05/05 11:13:27;;;;;;;5.85;2.13;;;17.40;99.90;;;;;;4862904;29;20029;-94
2023/05/05 11:15:54;;;;;;;6.53;1.98;;;17.40;99.90;;;;;;4878281;29;20051;-93
2023/05/05 11:18:39;;;;;;;8.35;2.13;;;17.50;99.90;;;;;;4862198;29;20026;-94
2023/05/05 11:21:15;;;;;;;6.07;1.85;;;17.50;99.90;;;;;;4864398;29;20036;-94
2023/05/05 11:23:53;;;;;;;4.70;1.52;;;17.60;99.90;;;;;;4868074;29;20033;-93
2023/05/05 11:26:56;;;;;;;7.10;2.15;;;17.70;99.90;;;;;;4870879;29;20502;-94
2023/05/05 11:29:22;;;;;;;7.53;1.42;;;17.80;99.90;;;;;;4882456;29;20447;-95
2023/05/05 11:32:13;;;;;;;7.22;1.75;;;18.00;99.90;;;;;;4870942;29;20085;-93
2023/05/05 11:34:48;;;;;;;;;;;18.10;99.90;;;;;;4884839;29;20029;-94
2023/05/05 11:37:15;;;;;;;4.07;1.67;;;18.10;99.90;;;;;;4864256;29;19916;-94
2023/05/05 11:39:50;;;;;;;6.35;2.45;;;18.10;99.90;;;;;;4865790;29;20033;-93
2023/05/05 11:42:18;;;;;;;6.13;1.70;;;18.00;99.20;;;;;;4866558;29;20029;-93
2023/05/05 11:44:44;;;;;;;4.95;1.58;;;18.10;99.20;;;;;;4866375;29;20037;-94
2023/05/05 11:47:10;;;;;;;2.70;1.58;;;18.10;98.00;;;;;;4866097;29;20033;-94
2023/05/05 11:49:39;;;;;;;7.22;1.58;;;18.10;96.80;;;;;;4865650;29;20077;-92
2023/05/05 11:52:11;;;;;;;6.32;1.48;;;18.00;96.10;;;;;;4866588;29;20144;-92
2023/05/05 11:54:49;;;;;;;6.28;1.60;;;17.90;96.40;;;;;;4863741;29;20270;-93
2023/05/05 11:57:18;;;;;;;8.02;1.75;;;17.90;96.60;;;;;;4863239;29;20036;-94
2023/05/05 11:59:53;;;;;;;5.03;1.73;;;17.90;96.40;;;;;;4865065;29;20033;-93
2023/05/05 12:02:20;;;;;;;5.72;1.75;;;17.80;96.80;;;;;;4863657;29;20033;-92
2023/05/05 12:04:46;;;;;;;4.85;1.60;;;17.60;96.90;;;;;;4869410;29;20032;-92
2023/05/05 12:07:16;;;;;;;4.53;1.45;;;17.60;96.80;;;;;;4867541;29;20041;-94
2023/05/05 12:09:44;;;;;;;3.28;1.80;;;17.50;97.20;;;;;;4863340;29;20033;-92
2023/05/05 12:12:10;;;;;;;4.57;1.67;;;17.60;97.50;;;;;;4862126;29;20037;-93
2023/05/05 12:14:45;;;;;;;4.22;1.63;;;17.60;97.70;;;;;;4858952;29;20029;-92
2023/05/05 12:17:11;;;;;;;5.45;1.38;;;17.70;98.00;;;;;;4860849;29;20124;-92
2023/05/05 12:19:44;;;;;;;5.85;1.83;;;17.90;98.10;;;;;;4866204;29;20039;-92
2023/05/05 12:22:19;;;;;;;4.15;1.20;;;18.10;97.80;;;;;;4863029;29;20044;-95
2023/05/05 12:25:25;;;;;;;4.47;0.93;;;18.30;96.60;;;;;;4883338;29;20045;-93
2023/05/05 12:27:54;;;;;;;5.22;0.90;;;18.50;95.60;;;;;;4863735;29;20132;-93
2023/05/05 12:30:21;;;;;;;3.15;0.90;;;18.60;94.00;;;;;;4860299;29;20037;-92
2023/05/05 12:32:47;;;;;;;4.72;1.15;;;18.80;93.90;;;;;;4860552;29;20130;-85
2023/05/05 12:35:14;;;;;;;3.58;1.40;;;18.90;93.80;;;;;;4877010;29;20112;-92
2023/05/05 12:37:41;;;;;;;4.68;1.10;;;19.20;93.20;;;;;;4859963;29;20144;-93
2023/05/05 12:40:46;;;;;;;5.30;1.10;;;19.30;92.40;;;;;;4874588;29;20033;-92
2023/05/05 12:43:25;;;;;;;2.58;1.10;;;19.50;92.10;;;;;;4878962;29;20032;-93
2023/05/05 12:46:05;;;;;;;4.68;1.20;;;19.80;91.40;;;;;;4881571;29;20076;-93